EDT,Max TemperatureF,Mean TemperatureF,Min TemperatureF,Max Dew PointF,MeanDew PointF,Min DewpointF,Max Humidity, Mean Humidity, Min Humidity, Max Sea Level PressureIn, Mean Sea Level PressureIn, Min Sea Level PressureIn, Max VisibilityMiles, Mean VisibilityMiles, Min VisibilityMiles, Max Wind SpeedMPH, Mean Wind SpeedMPH, Max Gust SpeedMPH,PrecipitationIn, CloudCover, Events, WindDirDegrees
2014-3-1,52,38,24,26,18,11,69,49,29,30.38,30.28,30.21,10,10,10,10,3,14,0.00,4,,226
2014-3-2,71,50,29,44,36,24,85,60,35,30.22,30.04,29.86,10,10,10,23,7,28,0.00,1,,227
2014-3-3,58,38,17,45,27,13,92,77,62,30.32,30.07,29.80,10,6,1,28,13,35,0.45,7,Rain-Snow,43
2014-3-4,34,22,9,18,11,6,92,64,35,30.41,30.30,30.22,10,10,10,15,5,19,0.00,0,,35
2014-3-5,47,36,25,21,18,15,75,52,28,30.31,30.21,30.14,10,10,10,10,3,13,0.00,0,,42
2014-3-6,41,35,28,28,22,14,85,63,40,30.44,30.31,30.21,10,8,2,20,13,27,0.19,5,Snow,49
2014-3-7,41,35,29,32,28,24,92,84,76,30.17,30.05,29.94,10,8,2,21,10,26,1.28,7,Rain-Snow,26
2014-3-8,62,44,26,39,32,24,92,67,42,30.05,29.98,29.94,10,8,2,15,5,19,0.00,0,,232
2014-3-9,64,50,35,38,33,30,92,62,32,30.08,30.02,29.95,10,10,10,14,4,20,0.00,0,,280
2014-3-10,71,49,27,36,31,26,92,59,25,30.00,29.88,29.75,10,10,8,20,6,26,0.00,0,,224
2014-3-11,78,58,38,40,35,30,79,49,18,29.77,29.71,29.63,10,10,10,16,6,21,0.00,0,,244
2014-3-12,67,53,39,57,47,24,90,70,49,29.64,29.40,29.19,10,9,1,31,11,42,0.30,5,Rain-Thunderstorm,238
2014-3-13,42,37,30,22,12,5,52,36,23,30.22,29.98,29.66,10,10,10,23,14,34,0.00,1,,307
2014-3-14,61,43,24,21,16,13,68,43,17,30.29,30.17,30.02,10,10,10,21,8,30,0.00,0,,209
2014-3-15,72,57,41,35,28,23,49,33,17,30.03,29.97,29.90,10,10,10,26,9,32,0.00,1,,243
2014-3-16,51,43,34,38,33,27,92,66,39,30.07,29.97,29.89,10,7,2,20,9,27,0.40,5,Rain,59
2014-3-17,34,32,29,32,27,24,92,85,78,30.03,29.94,29.88,10,8,2,21,13,24,0.13,8,Rain-Snow,39
2014-3-18,40,35,29,34,30,25,92,86,79,30.19,30.10,30.01,10,9,2,18,10,22,0.05,8,Rain,35
2014-3-19,48,41,34,43,37,32,92,86,80,30.20,30.10,29.93,10,8,2,18,6,23,0.04,8,Rain,355
2014-3-20,65,53,40,41,31,19,89,54,19,30.04,29.96,29.91,10,10,7,21,8,28,0.00,0,,278
2014-3-21,69,50,31,33,27,22,75,49,22,30.12,30.05,30.00,10,10,10,20,7,26,0.00,0,,214
2014-3-22,73,60,46,40,35,29,63,46,28,30.00,29.95,29.88,10,10,10,24,8,30,0.00,0,,227
2014-3-23,51,43,34,40,37,31,92,71,50,30.16,30.04,29.95,10,7,0,17,6,23,0.12,5,Fog-Rain,36
2014-3-24,50,40,29,33,18,10,70,46,21,30.30,30.18,30.07,10,10,10,14,5,20,0.00,0,,352
2014-3-25,40,36,32,35,30,21,89,73,56,30.05,29.92,29.80,10,7,1,14,6,18,0.05,6,Rain-Snow,12
2014-3-26,45,36,27,21,13,7,61,42,22,30.32,30.17,29.98,10,10,10,20,9,26,0.00,0,,307
2014-3-27,59,40,21,27,18,15,84,53,21,30.45,30.34,30.23,10,10,10,21,6,25,0.00,0,,191
2014-3-28,66,57,48,56,49,33,93,73,52,30.22,30.13,30.09,10,9,2,18,8,26,0.04,5,Rain,206
2014-3-29,65,59,53,62,58,51,100,94,87,30.11,29.82,29.53,10,5,0,20,4,27,0.11,8,Fog-Rain,182
2014-3-30,53,47,40,45,31,25,66,53,39,29.94,29.77,29.59,10,10,10,30,15,41,0.04,5,Rain,307
2014-3-31,73,55,37,33,25,22,56,36,16,30.09,30.04,29.96,10,10,10,21,6,26,0.00,0,,300